Time;durP1;ratioP1;P1;durP2;ratioP2;P2;SDS_P1;SDS_P2;PMS_P1;PMS_P2;Temp;Humidity;BMP_temperature;BMP_pressure;BME280_temperature;BME280_humidity;BME280_pressure;Samples;Min_cycle;Max_cycle;Signal;HPM_P1;HPM_P2
2023/03/26 00:01:45;;;;;;;25.85;23.70;;;;;;;15.13;56.29;100608.16;5035600;28;20037;-78
2023/03/26 00:04:11;;;;;;;24.67;22.60;;;;;;;15.12;56.26;100614.69;5035772;28;20041;-78
2023/03/26 00:06:38;;;;;;;26.50;23.92;;;;;;;15.11;56.13;100606.81;5034976;28;20432;-78
2023/03/26 00:09:09;;;;;;;22.50;21.00;;;;;;;15.10;56.25;100616.88;5034730;28;20029;-79
2023/03/26 00:11:34;;;;;;;23.52;21.90;;;;;;;15.09;56.04;100608.97;5035052;28;20061;-78
2023/03/26 00:14:01;;;;;;;23.50;21.80;;;;;;;15.08;56.16;100604.63;5034651;28;20045;-79
2023/03/26 00:16:29;;;;;;;25.23;23.42;;;;;;;15.06;56.26;100596.75;5034645;28;20053;-77
2023/03/26 00:18:56;;;;;;;21.80;20.65;;;;;;;15.06;56.12;100593.22;5034701;28;20029;-78
2023/03/26 00:21:26;;;;;;;25.23;23.73;;;;;;;15.07;56.29;100598.38;5034671;28;20045;-79
2023/03/26 00:23:58;;;;;;;22.17;20.73;;;;;;;15.05;56.46;100588.88;5033935;28;20385;-79
2023/03/26 00:26:25;;;;;;;22.63;20.65;;;;;;;15.02;56.28;100595.69;5035057;28;20033;-79
2023/03/26 00:28:50;;;;;;;22.15;20.75;;;;;;;15.01;56.28;100596.75;5034901;28;20426;-79
2023/03/26 00:31:17;;;;;;;23.55;21.88;;;;;;;15.00;56.26;100597.84;5046217;28;20036;-79
2023/03/26 00:33:42;;;;;;;22.33;20.77;;;;;;;15.01;56.26;100593.22;5048724;28;20104;-79
2023/03/26 00:36:13;;;;;;;24.73;22.92;;;;;;;14.99;56.37;100588.03;5047302;28;20036;-78
2023/03/26 00:38:40;;;;;;;25.60;22.33;;;;;;;14.97;56.35;100582.09;5055246;28;20036;-76
2023/03/26 00:41:16;;;;;;;25.65;23.50;;;;;;;14.96;56.41;100572.28;5055482;28;20038;-79
2023/03/26 00:43:44;;;;;;;24.02;21.95;;;;;;;14.95;56.57;100578.81;5054799;28;20124;-78
2023/03/26 00:46:09;;;;;;;22.95;21.15;;;;;;;14.94;56.21;100571.75;5053998;28;20037;-78
2023/03/26 00:48:37;;;;;;;23.13;21.65;;;;;;;14.92;56.35;100572.03;5047035;28;20450;-78
2023/03/26 00:51:05;;;;;;;22.13;20.80;;;;;;;14.91;56.36;100564.94;5039227;28;20053;-79
2023/03/26 00:53:31;;;;;;;23.63;21.77;;;;;;;14.91;56.40;100566.88;5038642;28;20041;-78
2023/03/26 00:55:59;;;;;;;22.88;20.98;;;;;;;14.89;56.27;100564.44;5038356;28;20041;-79
2023/03/26 00:58:25;;;;;;;21.38;20.17;;;;;;;14.88;56.43;100561.97;5038311;28;20041;-78
2023/03/26 01:00:57;;;;;;;23.73;21.33;;;;;;;14.88;56.42;100559.25;5043774;28;20442;-79
2023/03/26 01:03:28;;;;;;;22.52;21.13;;;;;;;14.86;56.26;100551.38;5041333;28;20025;-78
2023/03/26 01:06:03;;;;;;;22.92;21.70;;;;;;;14.86;56.57;100550.56;5043242;28;20046;-79
2023/03/26 01:08:47;;;;;;;22.65;20.98;;;;;;;14.82;56.50;100541.34;5049445;28;20057;-79
2023/03/26 01:11:15;;;;;;;22.48;21.27;;;;;;;14.81;56.31;100543.22;5054588;28;20026;-79
2023/03/26 01:13:47;;;;;;;24.73;22.90;;;;;;;14.81;56.63;100532.34;5052241;28;20166;-78
2023/03/26 01:16:28;;;;;;;21.95;20.23;;;;;;;14.79;56.50;100533.72;5068221;28;20335;-78
2023/03/26 01:18:57;;;;;;;23.08;21.58;;;;;;;14.79;56.43;100533.72;5044598;28;20354;-78
2023/03/26 01:21:28;;;;;;;21.95;20.50;;;;;;;14.79;56.50;100531.00;5039662;28;20084;-79
2023/03/26 01:24:08;;;;;;;22.63;21.17;;;;;;;14.77;56.34;100525.03;5036537;28;20111;-79
2023/03/26 01:26:37;;;;;;;22.35;20.52;;;;;;;14.76;56.23;100512.53;5035167;28;20363;-77
2023/03/26 01:29:07;;;;;;;22.13;20.83;;;;;;;14.75;56.60;100513.63;5035724;28;20029;-79
2023/03/26 01:31:47;;;;;;;23.35;21.65;;;;;;;14.74;56.57;100506.53;5035151;28;20381;-79
2023/03/26 01:34:32;;;;;;;22.48;20.73;;;;;;;14.71;56.48;100499.75;5035216;28;20100;-79
2023/03/26 01:37:46;;;;;;;21.25;19.90;;;;;;;14.66;56.37;100495.13;5034881;28;20091;-78
2023/03/26 01:40:41;;;;;;;22.40;20.55;;;;;;;14.66;56.45;100497.84;5007938;28;20504;-78
2023/03/26 01:43:19;;;;;;;22.55;21.15;;;;;;;14.63;56.77;100506.56;5034948;28;20045;-79
2023/03/26 01:45:48;;;;;;;23.17;21.88;;;;;;;14.62;56.53;100502.22;5034344;28;20037;-78
2023/03/26 01:48:14;;;;;;;21.45;20.23;;;;;;;14.63;56.72;100490.25;5053289;28;20532;-79
2023/03/26 01:50:39;;;;;;;23.05;21.52;;;;;;;14.63;56.73;100489.44;5037534;28;20045;-78
2023/03/26 01:53:07;;;;;;;23.90;21.80;;;;;;;14.63;56.31;100498.41;5038215;28;20033;-79
2023/03/26 01:55:48;;;;;;;22.07;20.83;;;;;;;14.60;56.63;100479.94;5038047;28;20378;-78
2023/03/26 01:58:52;;;;;;;22.50;21.13;;;;;;;14.56;56.65;100478.03;5036474;28;20033;-78
2023/03/26 02:01:29;;;;;;;21.33;20.02;;;;;;;14.58;56.57;100462.28;4976164;28;20110;-79
2023/03/26 02:04:30;;;;;;;24.45;22.58;;;;;;;14.54;56.88;100467.47;5030529;28;20049;-79
2023/03/26 02:07:27;;;;;;;23.17;21.27;;;;;;;14.53;56.45;100454.94;5036609;28;20049;-78
2023/03/26 02:10:06;;;;;;;23.98;22.23;;;;;;;14.50;56.79;100464.44;5037406;28;20056;-79
2023/03/26 02:12:32;;;;;;;23.00;21.27;;;;;;;14.51;56.63;100448.94;5037043;28;20036;-78
2023/03/26 02:15:01;;;;;;;22.55;21.10;;;;;;;14.50;56.56;100450.84;5037029;28;20033;-78
2023/03/26 02:17:28;;;;;;;21.55;20.23;;;;;;;14.50;56.77;100447.31;5036650;28;20029;-78
2023/03/26 02:19:55;;;;;;;24.58;22.80;;;;;;;14.50;56.37;100448.13;5036546;28;20040;-79
2023/03/26 02:22:21;;;;;;;21.90;20.50;;;;;;;14.50;56.68;100444.59;5036825;28;20061;-78
2023/03/26 02:24:47;;;;;;;24.88;22.17;;;;;;;14.49;56.48;100437.56;5036870;28;20087;-78
2023/03/26 02:27:12;;;;;;;22.92;20.75;;;;;;;14.48;56.49;100442.16;5036309;28;20038;-78
2023/03/26 02:29:39;;;;;;;22.98;21.23;;;;;;;14.47;56.42;100443.25;5035784;28;20472;-78
2023/03/26 02:32:06;;;;;;;22.27;20.88;;;;;;;14.46;56.65;100436.19;5036355;28;20466;-79
2023/03/26 02:34:32;;;;;;;21.98;20.67;;;;;;;14.46;56.58;100436.19;5036382;28;20454;-79
2023/03/26 02:36:57;;;;;;;23.60;22.00;;;;;;;14.46;56.43;100427.22;5036244;28;20036;-78
2023/03/26 02:39:24;;;;;;;22.00;20.80;;;;;;;14.44;56.68;100422.06;5036585;28;20121;-79
2023/03/26 02:41:49;;;;;;;23.85;21.75;;;;;;;14.44;56.48;100418.53;5036242;28;20429;-78
2023/03/26 02:44:14;;;;;;;21.67;20.20;;;;;;;14.43;56.50;100417.72;5035940;28;20466;-78
2023/03/26 02:46:40;;;;;;;22.55;21.17;;;;;;;14.42;56.48;100412.56;5034917;28;20045;-78
2023/03/26 02:49:07;;;;;;;21.63;20.42;;;;;;;14.41;56.42;100409.03;5036059;28;20033;-78
2023/03/26 02:51:33;;;;;;;22.27;20.88;;;;;;;14.40;56.34;100401.97;5035866;28;20566;-78
2023/03/26 02:54:00;;;;;;;23.20;21.67;;;;;;;14.40;56.46;100401.16;5035930;28;20087;-79
2023/03/26 02:56:25;;;;;;;23.70;21.23;;;;;;;14.38;56.57;100392.47;5036245;28;20064;-79
2023/03/26 02:58:50;;;;;;;22.08;20.58;;;;;;;14.37;56.69;100385.41;5034775;28;20065;-78
2023/03/26 03:01:17;;;;;;;22.92;21.35;;;;;;;14.37;56.38;100388.13;5035920;28;20038;-79
2023/03/26 03:03:42;;;;;;;21.42;20.23;;;;;;;14.36;56.45;100378.34;5035528;28;20430;-79
2023/03/26 03:06:08;;;;;;;21.60;20.30;;;;;;;14.35;56.69;100379.44;5034490;28;20056;-79
2023/03/26 03:08:33;;;;;;;21.65;19.98;;;;;;;14.34;56.39;100373.19;5035824;28;20068;-79
2023/03/26 03:11:01;;;;;;;23.42;21.75;;;;;;;14.34;56.58;100375.06;5035729;28;20039;-78
2023/03/26 03:13:27;;;;;;;21.27;20.07;;;;;;;14.33;56.49;100362.59;5036011;28;20537;-78
2023/03/26 03:15:53;;;;;;;22.02;20.33;;;;;;;14.33;56.44;100362.59;5035582;28;20113;-80
2023/03/26 03:18:19;;;;;;;21.05;19.38;;;;;;;14.32;56.47;100356.34;5035796;28;20021;-78
2023/03/26 03:20:45;;;;;;;23.90;22.50;;;;;;;14.32;56.57;100358.25;5050936;28;20470;-78
2023/03/26 03:23:10;;;;;;;19.90;18.77;;;;;;;14.29;56.66;100349.56;5035692;28;20414;-78
2023/03/26 03:25:37;;;;;;;20.63;18.88;;;;;;;14.29;56.44;100349.56;5035211;28;20107;-78
2023/03/26 03:28:03;;;;;;;21.70;20.50;;;;;;;14.28;56.37;100342.50;5050911;28;20030;-78
2023/03/26 03:30:28;;;;;;;21.25;19.90;;;;;;;14.28;56.54;100339.78;5035304;28;20163;-78
2023/03/26 03:32:53;;;;;;;22.00;20.70;;;;;;;14.27;56.38;100337.34;5034038;28;20032;-78
2023/03/26 03:35:19;;;;;;;21.75;20.50;;;;;;;14.25;56.63;100340.34;5034047;28;20150;-78
2023/03/26 03:37:44;;;;;;;21.85;20.52;;;;;;;14.24;56.42;100337.91;5035127;28;20029;-78
2023/03/26 03:40:10;;;;;;;20.58;19.48;;;;;;;14.24;56.69;100332.47;5035396;28;20044;-77
2023/03/26 03:42:36;;;;;;;19.83;18.70;;;;;;;14.22;56.48;100323.78;5035312;28;20409;-78
2023/03/26 03:45:05;;;;;;;21.60;20.30;;;;;;;14.22;56.50;100324.59;5035031;28;20041;-78
2023/03/26 03:47:30;;;;;;;;;;;;;;;14.16;56.53;100319.44;5035406;28;20033;-78
2023/03/26 03:49:58;;;;;;;22.55;20.55;;;;;;;14.16;56.48;100320.28;5034683;28;20290;-77
2023/03/26 03:52:27;;;;;;;19.95;18.75;;;;;;;14.15;56.56;100317.81;5017904;28;20444;-78
2023/03/26 03:54:55;;;;;;;20.90;19.65;;;;;;;14.16;56.57;100305.84;5050153;28;20087;-78
2023/03/26 03:57:20;;;;;;;20.08;18.70;;;;;;;14.15;56.54;100299.63;5034720;28;20079;-78
2023/03/26 03:59:47;;;;;;;21.23;19.98;;;;;;;14.16;56.58;100289.56;5034477;28;20037;-78
2023/03/26 04:02:12;;;;;;;21.00;19.70;;;;;;;14.15;56.69;100291.47;5034392;28;20033;-79
2023/03/26 04:04:38;;;;;;;20.02;18.80;;;;;;;14.16;56.63;100284.13;5035042;28;20354;-78
2023/03/26 04:07:05;;;;;;;21.90;20.20;;;;;;;14.15;56.39;100280.59;5034823;28;20029;-77
2023/03/26 04:09:30;;;;;;;19.63;18.25;;;;;;;14.14;56.59;100281.72;5034438;28;20040;-78
2023/03/26 04:11:56;;;;;;;21.92;20.02;;;;;;;14.14;56.48;100278.19;5035098;28;20033;-78
2023/03/26 04:14:21;;;;;;;22.48;20.88;;;;;;;14.14;56.59;100272.75;5034594;28;20109;-78
2023/03/26 04:16:47;;;;;;;20.45;18.95;;;;;;;14.13;56.58;100271.13;5034420;28;20029;-79
2023/03/26 04:19:14;;;;;;;20.25;18.98;;;;;;;14.12;56.60;100264.06;5034796;28;20091;-78
2023/03/26 04:21:41;;;;;;;20.83;19.73;;;;;;;14.12;56.57;100259.44;5034453;28;20037;-78
2023/03/26 04:24:08;;;;;;;22.77;21.38;;;;;;;14.12;56.53;100256.72;5034780;28;20102;-78
2023/03/26 04:26:34;;;;;;;21.33;20.13;;;;;;;14.12;56.56;100248.56;5034319;28;20454;-78
2023/03/26 04:29:03;;;;;;;22.00;20.63;;;;;;;14.12;56.66;100243.16;5034816;28;20426;-78
2023/03/26 04:31:29;;;;;;;18.95;17.85;;;;;;;14.10;56.57;100245.31;5034259;28;20044;-79
2023/03/26 04:34:12;;;;;;;21.00;19.70;;;;;;;14.08;56.45;100242.06;5034080;28;20045;-78
2023/03/26 04:36:39;;;;;;;19.80;18.52;;;;;;;14.07;56.61;100232.31;5034627;28;20048;-78
2023/03/26 04:39:05;;;;;;;22.00;20.70;;;;;;;14.06;56.58;100231.50;5034772;28;20168;-78
2023/03/26 04:41:31;;;;;;;22.60;21.10;;;;;;;14.06;56.34;100230.66;5034121;28;20029;-78
2023/03/26 04:44:00;;;;;;;19.83;18.52;;;;;;;14.06;56.69;100231.50;5016740;28;20040;-78
2023/03/26 04:46:26;;;;;;;21.23;19.83;;;;;;;14.05;56.42;100227.13;5034007;28;20055;-78
2023/03/26 04:48:53;;;;;;;20.55;19.42;;;;;;;14.05;56.27;100210.03;5033921;28;20042;-79
2023/03/26 04:51:26;;;;;;;20.05;18.95;;;;;;;14.03;56.36;100198.63;5033989;28;20053;-78
2023/03/26 04:53:56;;;;;;;22.27;20.77;;;;;;;14.03;56.53;100191.31;5033858;28;20036;-78
2023/03/26 04:56:27;;;;;;;22.13;20.38;;;;;;;14.02;56.56;100195.13;5034237;28;20029;-78
2023/03/26 04:58:58;;;;;;;19.75;18.73;;;;;;;14.02;56.71;100195.13;5034083;28;20034;-78
2023/03/26 05:01:27;;;;;;;20.40;19.38;;;;;;;14.01;56.73;100181.81;5034226;28;20026;-78
2023/03/26 05:03:52;;;;;;;21.55;20.33;;;;;;;14.00;56.58;100189.16;5033752;28;20039;-79
2023/03/26 05:06:18;;;;;;;19.92;18.83;;;;;;;14.00;56.47;100183.72;5033850;28;20104;-79
2023/03/26 05:08:43;;;;;;;20.70;19.60;;;;;;;13.99;56.41;100184.00;5033686;28;20037;-78
2023/03/26 05:11:10;;;;;;;20.10;19.00;;;;;;;13.99;56.45;100179.38;5033615;28;20026;-78
2023/03/26 05:13:41;;;;;;;20.45;19.30;;;;;;;13.99;56.56;100184.00;5033665;28;20030;-78
2023/03/26 05:16:08;;;;;;;20.67;19.42;;;;;;;13.98;56.52;100172.31;5033878;28;20032;-78
2023/03/26 05:18:33;;;;;;;20.55;19.20;;;;;;;13.99;56.53;100175.88;5033589;28;20038;-78
2023/03/26 05:20:59;;;;;;;20.83;19.40;;;;;;;13.97;56.55;100168.00;5033284;28;20026;-78
2023/03/26 05:23:24;;;;;;;21.67;20.58;;;;;;;13.96;56.44;100162.81;5034143;28;20048;-77
2023/03/26 05:25:50;;;;;;;22.25;20.55;;;;;;;13.96;56.63;100157.41;5033783;28;20102;-78
2023/03/26 05:28:19;;;;;;;22.05;20.77;;;;;;;13.95;56.51;100151.16;5033460;28;20608;-78
2023/03/26 05:30:45;;;;;;;19.27;18.15;;;;;;;13.94;56.52;100140.59;5033364;28;20458;-78
2023/03/26 05:33:11;;;;;;;22.42;20.85;;;;;;;13.94;56.62;100127.81;5031813;28;20433;-78
2023/03/26 05:35:36;;;;;;;20.17;18.92;;;;;;;13.93;56.65;100119.94;5033848;28;20029;-78
2023/03/26 05:38:01;;;;;;;20.05;18.65;;;;;;;13.94;56.77;100116.16;5031794;28;20068;-78
2023/03/26 05:40:27;;;;;;;20.23;18.98;;;;;;;13.93;56.52;100118.03;5033381;28;20036;-78
2023/03/26 05:42:52;;;;;;;20.48;19.17;;;;;;;13.92;56.63;100113.72;5033327;28;20060;-78
2023/03/26 05:45:18;;;;;;;20.83;19.45;;;;;;;13.92;56.65;100107.47;5049070;28;20065;-78
2023/03/26 05:47:44;;;;;;;20.80;19.40;;;;;;;13.91;56.63;100117.53;5033173;28;20448;-78
2023/03/26 05:50:10;;;;;;;21.65;19.60;;;;;;;13.91;56.58;100124.84;5033571;28;20033;-78
2023/03/26 05:52:35;;;;;;;19.30;18.30;;;;;;;13.90;56.68;100121.31;5033751;28;20092;-78
2023/03/26 05:55:02;;;;;;;19.10;18.00;;;;;;;13.89;56.72;100117.00;5033296;28;20527;-78
2023/03/26 05:57:29;;;;;;;20.20;19.08;;;;;;;13.90;56.54;100107.75;5033069;28;20033;-78
2023/03/26 05:59:55;;;;;;;21.15;19.63;;;;;;;13.89;56.81;100103.41;5033456;28;20177;-79
2023/03/26 06:02:21;;;;;;;22.10;20.58;;;;;;;13.90;56.53;100109.66;5031886;28;20097;-79
2023/03/26 06:04:47;;;;;;;20.23;18.80;;;;;;;13.88;56.70;100109.13;5033937;28;20061;-78
2023/03/26 06:07:12;;;;;;;22.52;21.10;;;;;;;13.88;56.67;100109.13;5033535;28;20077;-78
2023/03/26 06:09:39;;;;;;;20.48;18.90;;;;;;;13.88;56.71;100100.97;5033394;28;20030;-78
2023/03/26 06:12:05;;;;;;;20.73;19.58;;;;;;;13.87;56.53;100097.44;5033133;28;20033;-78
2023/03/26 06:14:31;;;;;;;21.13;19.52;;;;;;;13.87;56.41;100099.38;5033638;28;20041;-78
2023/03/26 06:16:56;;;;;;;20.67;19.40;;;;;;;13.85;56.71;100089.56;5033055;28;20025;-78
2023/03/26 06:19:22;;;;;;;21.90;20.60;;;;;;;13.87;56.73;100093.94;5033407;28;20515;-78
2023/03/26 06:21:47;;;;;;;19.65;18.52;;;;;;;13.85;56.66;100084.16;5033262;28;20036;-78
2023/03/26 06:24:15;;;;;;;20.75;19.45;;;;;;;13.84;56.50;100085.25;5033416;28;20480;-77
2023/03/26 06:26:41;;;;;;;19.65;18.50;;;;;;;13.84;56.64;100085.25;5032943;28;20029;-78
2023/03/26 06:29:06;;;;;;;19.83;18.70;;;;;;;13.83;56.66;100086.34;5033140;28;20180;-78
2023/03/26 06:31:31;;;;;;;18.35;17.42;;;;;;;13.83;56.46;100080.94;5032826;28;20030;-77
2023/03/26 06:33:57;;;;;;;19.95;18.70;;;;;;;13.82;56.55;100084.72;5035622;28;20032;-78
2023/03/26 06:36:22;;;;;;;21.90;20.25;;;;;;;13.82;56.69;100076.56;5036246;28;20389;-77
2023/03/26 06:38:47;;;;;;;20.15;18.70;;;;;;;13.81;56.48;100082.31;5036593;28;20026;-77
2023/03/26 06:41:13;;;;;;;21.90;20.60;;;;;;;13.81;56.55;100088.53;5036743;28;20026;-79
2023/03/26 06:43:38;;;;;;;22.38;21.10;;;;;;;13.80;56.63;100076.03;5036256;28;20117;-79
2023/03/26 06:46:04;;;;;;;18.85;17.85;;;;;;;13.81;56.48;100082.31;5036263;28;20061;-79
2023/03/26 06:48:30;;;;;;;21.42;19.85;;;;;;;13.80;56.64;100083.38;5036683;28;20033;-78
2023/03/26 06:50:55;;;;;;;21.52;19.55;;;;;;;13.80;56.60;100086.09;5035835;28;20405;-79
2023/03/26 06:53:21;;;;;;;22.25;20.90;;;;;;;13.79;56.76;100082.56;5036292;28;20048;-77
2023/03/26 06:55:46;;;;;;;19.90;18.60;;;;;;;13.79;56.57;100087.19;5035928;28;20030;-77
2023/03/26 06:58:12;;;;;;;20.75;19.55;;;;;;;13.79;56.75;100090.72;5035952;28;20040;-78
2023/03/26 07:00:37;;;;;;;22.50;21.17;;;;;;;13.78;56.69;100082.84;5035973;28;20032;-77
2023/03/26 07:03:04;;;;;;;22.55;21.10;;;;;;;13.78;56.50;100080.13;5036553;28;20030;-78
2023/03/26 07:05:29;;;;;;;21.40;20.08;;;;;;;13.78;56.57;100082.84;5035798;28;20068;-76
2023/03/26 07:07:54;;;;;;;20.17;18.85;;;;;;;13.78;56.76;100074.69;5036527;28;20064;-77
2023/03/26 07:10:20;;;;;;;21.75;20.52;;;;;;;13.77;56.59;100081.22;5036190;28;20116;-77
2023/03/26 07:12:45;;;;;;;20.15;19.05;;;;;;;13.76;56.58;100077.72;5035700;28;20033;-78
2023/03/26 07:15:11;;;;;;;20.42;19.17;;;;;;;13.76;56.85;100076.91;5035582;28;20041;-77
2023/03/26 07:17:37;;;;;;;20.45;19.27;;;;;;;13.75;56.92;100076.06;5035559;28;20488;-78
2023/03/26 07:20:03;;;;;;;21.85;20.20;;;;;;;13.76;57.00;100072.28;5051132;28;20108;-78
2023/03/26 07:22:29;;;;;;;23.15;21.77;;;;;;;13.75;56.76;100067.91;5035353;28;20041;-77
2023/03/26 07:24:55;;;;;;;22.40;20.90;;;;;;;13.77;56.75;100075.78;5035430;28;20030;-78
2023/03/26 07:27:58;;;;;;;21.40;20.20;;;;;;;13.73;56.72;100061.97;5033946;28;20084;-76
2023/03/26 07:31:08;;;;;;;21.85;20.38;;;;;;;13.69;56.96;100063.63;5035548;28;20077;-79
2023/03/26 07:33:42;;;;;;;20.58;19.38;;;;;;;13.68;56.96;100064.69;5035462;28;20082;-77
2023/03/26 07:36:30;;;;;;;20.92;19.38;;;;;;;13.67;57.02;100065.00;5035827;28;20084;-77
2023/03/26 07:39:05;;;;;;;;;;;;;;;13.63;57.06;100054.72;5036407;28;20039;-77
2023/03/26 07:41:57;;;;;;;21.38;19.83;;;;;;;13.63;57.04;100067.44;5035391;28;19909;-77
2023/03/26 07:44:49;;;;;;;19.42;18.20;;;;;;;13.62;56.70;100058.50;5017477;28;20021;-77
2023/03/26 07:47:31;;;;;;;20.80;19.33;;;;;;;13.62;56.73;100055.78;5035158;28;20025;-77
2023/03/26 07:49:57;;;;;;;20.00;18.83;;;;;;;13.63;57.12;100057.44;5035120;28;20105;-81
2023/03/26 07:52:23;;;;;;;21.75;20.00;;;;;;;13.65;57.02;100054.41;5017278;28;20056;-80
2023/03/26 07:54:49;;;;;;;21.05;19.92;;;;;;;13.66;56.94;100050.63;5034622;28;20132;-81
2023/03/26 07:57:39;;;;;;;20.00;18.85;;;;;;;13.65;56.81;100051.69;5034638;28;20075;-78
2023/03/26 08:00:15;;;;;;;20.15;18.73;;;;;;;13.67;56.86;100056.84;5035357;28;20028;-78
2023/03/26 08:03:06;;;;;;;20.23;18.50;;;;;;;13.66;56.88;100049.78;5035034;28;20029;-78
2023/03/26 08:05:42;;;;;;;22.65;21.00;;;;;;;13.64;56.87;100048.19;5034888;28;20057;-78
2023/03/26 08:08:29;;;;;;;20.55;18.88;;;;;;;13.63;56.90;100049.28;5050248;28;20029;-79
2023/03/26 08:11:13;;;;;;;19.88;18.77;;;;;;;13.65;56.94;100048.97;5034902;28;20087;-78
2023/03/26 08:13:41;;;;;;;19.67;18.38;;;;;;;13.63;57.23;100045.72;5033721;28;20052;-78
2023/03/26 08:16:10;;;;;;;20.58;19.10;;;;;;;13.63;56.98;100046.56;5034235;28;20033;-76
2023/03/26 08:18:40;;;;;;;21.00;18.88;;;;;;;13.65;57.11;100043.56;5034272;28;20087;-76
2023/03/26 08:21:12;;;;;;;22.13;20.45;;;;;;;13.66;57.29;100047.06;5034259;28;20040;-75
2023/03/26 08:23:57;;;;;;;19.42;18.40;;;;;;;13.65;57.09;100046.28;5034393;28;20029;-76
2023/03/26 08:26:51;;;;;;;21.13;19.88;;;;;;;13.63;57.24;100041.13;5034133;28;20482;-76
2023/03/26 08:29:29;;;;;;;20.77;19.58;;;;;;;13.64;56.95;100044.66;5034539;28;20133;-76
2023/03/26 08:31:56;;;;;;;19.05;17.75;;;;;;;13.64;57.25;100044.66;5034452;28;20040;-76
2023/03/26 08:34:22;;;;;;;20.83;19.67;;;;;;;13.66;56.93;100045.19;5034513;28;20378;-77
2023/03/26 08:36:47;;;;;;;20.88;19.67;;;;;;;13.66;57.13;100039.78;5034366;28;20366;-76
2023/03/26 08:39:13;;;;;;;19.60;18.60;;;;;;;13.67;57.17;100041.38;5033979;28;20037;-76
2023/03/26 08:42:03;;;;;;;20.52;19.23;;;;;;;13.66;57.04;100041.66;5034272;28;20573;-76
2023/03/26 08:44:28;;;;;;;21.50;19.88;;;;;;;13.65;57.27;100040.84;5034481;28;20068;-75
2023/03/26 08:47:18;;;;;;;19.90;18.70;;;;;;;13.65;57.15;100048.97;5033845;28;20073;-75
2023/03/26 08:50:15;;;;;;;20.42;19.33;;;;;;;13.61;57.14;100040.59;5034008;28;20108;-76
2023/03/26 08:53:03;;;;;;;20.50;19.08;;;;;;;13.62;56.86;100044.94;5032050;28;20567;-76
2023/03/26 08:55:31;;;;;;;20.80;19.33;;;;;;;13.64;56.88;100041.94;5005019;28;20056;-76
2023/03/26 08:58:32;;;;;;;20.33;19.02;;;;;;;13.63;57.17;100043.03;5033002;28;20033;-76
2023/03/26 09:01:19;;;;;;;22.23;20.40;;;;;;;13.59;57.29;100036.56;5033804;28;20121;-77
2023/03/26 09:04:23;;;;;;;21.77;20.17;;;;;;;13.58;57.09;100035.75;5033707;28;20040;-77
2023/03/26 09:07:08;;;;;;;20.95;19.10;;;;;;;13.58;57.14;100032.19;5032715;28;20037;-76
2023/03/26 09:10:15;;;;;;;24.00;21.75;;;;;;;13.57;57.29;100027.88;5033641;28;20030;-78
2023/03/26 09:13:11;;;;;;;21.27;19.90;;;;;;;13.57;57.15;100033.28;5024835;28;20052;-76
2023/03/26 09:16:05;;;;;;;23.02;21.45;;;;;;;13.57;57.30;100033.28;5034120;28;20033;-76
2023/03/26 09:18:58;;;;;;;23.48;21.52;;;;;;;13.57;57.17;100036.00;5033190;28;20116;-75
2023/03/26 09:21:29;;;;;;;20.63;19.40;;;;;;;13.57;57.24;100041.44;5033906;28;20034;-76
2023/03/26 09:24:28;;;;;;;19.10;18.10;;;;;;;13.57;57.16;100033.28;5033631;28;20029;-75
2023/03/26 09:27:29;;;;;;;20.63;19.00;;;;;;;13.58;57.16;100035.75;5033315;28;20030;-75
2023/03/26 09:30:10;;;;;;;20.48;18.95;;;;;;;13.57;57.24;100036.81;5033670;28;20021;-76
2023/03/26 09:32:47;;;;;;;22.35;20.77;;;;;;;13.58;57.08;100032.19;5033316;28;20066;-76
2023/03/26 09:35:39;;;;;;;20.20;19.13;;;;;;;13.59;57.26;100028.41;5034054;28;20052;-76
2023/03/26 09:38:43;;;;;;;19.98;18.85;;;;;;;13.57;57.34;100033.28;5034091;28;20025;-76
2023/03/26 09:41:35;;;;;;;21.08;19.88;;;;;;;13.56;57.39;100034.41;5032868;28;20421;-75
2023/03/26 09:44:24;;;;;;;18.90;17.73;;;;;;;13.58;57.37;100034.91;5033594;28;20033;-76
2023/03/26 09:47:18;;;;;;;20.27;18.85;;;;;;;13.58;57.25;100030.31;5033660;28;20411;-75
2023/03/26 09:49:50;;;;;;;21.02;19.58;;;;;;;13.59;57.28;100031.94;5031331;28;20041;-75
2023/03/26 09:52:20;;;;;;;21.95;20.75;;;;;;;13.61;57.16;100034.38;5033085;28;20068;-75
2023/03/26 09:54:47;;;;;;;20.48;19.30;;;;;;;13.62;57.36;100036.78;5031970;28;20034;-75
2023/03/26 09:57:52;;;;;;;20.70;19.50;;;;;;;13.63;57.12;100041.13;5032947;28;20026;-75
2023/03/26 10:00:20;;;;;;;19.73;18.63;;;;;;;13.62;57.50;100034.06;5033455;28;20033;-75
2023/03/26 10:03:09;;;;;;;21.05;19.55;;;;;;;13.61;57.06;100035.19;5033386;28;20048;-75
2023/03/26 10:05:47;;;;;;;22.30;20.88;;;;;;;13.63;57.34;100043.03;5033091;28;20116;-76
2023/03/26 10:08:47;;;;;;;21.13;20.02;;;;;;;13.61;57.27;100037.88;5034718;28;20529;-75
2023/03/26 10:11:55;;;;;;;19.70;18.38;;;;;;;13.62;57.21;100041.41;5036841;28;20040;-76
2023/03/26 10:14:33;;;;;;;18.83;17.73;;;;;;;13.61;57.52;100046.03;5037483;28;20068;-75
2023/03/26 10:17:24;;;;;;;19.73;18.63;;;;;;;13.63;57.57;100043.03;5052507;28;20137;-75
2023/03/26 10:19:59;;;;;;;21.13;19.98;;;;;;;13.64;57.53;100039.22;5037092;28;20026;-76
2023/03/26 10:22:54;;;;;;;21.10;19.77;;;;;;;13.64;57.20;100040.03;5035688;28;20040;-75
2023/03/26 10:26:07;;;;;;;19.65;18.42;;;;;;;13.66;57.48;100050.63;5037442;28;20099;-76
2023/03/26 10:28:59;;;;;;;21.42;20.00;;;;;;;13.64;57.39;100047.38;5023691;28;20053;-75
2023/03/26 10:31:43;;;;;;;20.77;19.75;;;;;;;13.64;57.68;100053.59;5036487;28;20025;-75
2023/03/26 10:34:29;;;;;;;20.90;19.80;;;;;;;13.66;57.51;100056.06;5035742;28;20022;-75
2023/03/26 10:37:31;;;;;;;19.30;18.20;;;;;;;13.66;57.47;100047.06;5053090;28;20124;-76
2023/03/26 10:40:31;;;;;;;19.08;17.98;;;;;;;13.64;57.61;100053.59;5037129;28;20084;-76
2023/03/26 10:43:27;;;;;;;19.35;18.30;;;;;;;13.67;57.56;100057.66;4992875;28;20481;-76
2023/03/26 10:46:04;;;;;;;19.10;18.10;;;;;;;13.68;57.21;100056.56;5036854;28;20112;-76
2023/03/26 10:48:43;;;;;;;21.25;19.98;;;;;;;13.70;57.64;100056.28;5036009;28;20086;-75
2023/03/26 10:51:25;;;;;;;;;;;;;;;13.69;57.54;100060.09;5036704;28;20049;-77
2023/03/26 10:54:01;;;;;;;19.92;18.83;;;;;;;13.68;57.23;100055.75;5036469;28;20345;-76
2023/03/26 10:56:43;;;;;;;19.27;18.33;;;;;;;13.69;57.80;100060.09;5036066;28;20026;-77
2023/03/26 10:59:12;;;;;;;18.73;17.73;;;;;;;13.72;57.39;100062.25;5036041;28;20033;-76
2023/03/26 11:01:53;;;;;;;24.17;22.65;;;;;;;13.73;57.58;100067.38;5050941;28;20064;-74
2023/03/26 11:04:36;;;;;;;19.75;18.42;;;;;;;13.73;57.46;100072.81;5035642;28;20080;-76
2023/03/26 11:07:15;;;;;;;19.77;18.67;;;;;;;13.75;57.34;100077.97;5035679;28;20033;-76
2023/03/26 11:09:40;;;;;;;21.98;20.40;;;;;;;13.74;57.46;100077.16;5035496;28;20083;-76
2023/03/26 11:12:24;;;;;;;20.95;19.60;;;;;;;13.76;57.40;100080.41;5035651;28;20025;-76
2023/03/26 11:14:52;;;;;;;20.23;19.02;;;;;;;13.79;57.71;100084.47;5036202;28;20038;-76
2023/03/26 11:17:26;;;;;;;19.48;18.48;;;;;;;13.80;57.70;100089.59;5035514;28;20025;-76
2023/03/26 11:20:12;;;;;;;21.17;19.88;;;;;;;13.79;57.72;100090.72;5034920;28;20496;-75
2023/03/26 11:22:56;;;;;;;22.10;20.75;;;;;;;13.82;57.41;100092.84;5034799;28;20038;-75
2023/03/26 11:25:40;;;;;;;19.77;18.48;;;;;;;13.81;57.44;100093.16;5035480;28;20045;-75
2023/03/26 11:28:35;;;;;;;20.77;19.67;;;;;;;13.80;57.63;100094.22;5035825;28;20041;-75
2023/03/26 11:31:10;;;;;;;20.17;19.13;;;;;;;13.81;57.76;100090.44;5036185;28;20033;-75
2023/03/26 11:33:42;;;;;;;22.90;21.25;;;;;;;13.83;57.44;100094.50;5036135;28;20064;-76
2023/03/26 11:36:12;;;;;;;20.95;19.85;;;;;;;13.85;57.61;100095.00;5035604;28;20446;-75
2023/03/26 11:38:45;;;;;;;21.73;20.48;;;;;;;13.88;57.60;100098.25;5034829;28;20053;-75